Iberville, Canada
Current Conditions -  °F | °C
As of 7:16 AM on Friday 28 Nov 2014 (Local Time) from CYHU Reporting Station
Light Snow Light Snow  
Wind Chill: 14°   Ceiling: 2200
Heat Index: 21°   Visibility: 9mi
Dew Point: 18°   Wind: 6mph
Humidity: 86%   Direction: 40°NE
Pressure: 30.09"   Gusts: NA
Location:  45.32°N, 73.23°W
Report Text: CYHU 281216Z AUTO 04005KT 9SM -SNSN OVC022 M06/M08 A3009 RMK SLP189
Loading
Personal Weather Stations






























Interactive Weather Map New forecast layout! Learn more

10-Day Weather Forecast

Advertisements
Track Severe Weather on mobile